createdAt,value
2017-01-08T09:01:10.598Z,1016.93
2017-01-08T09:02:21.490Z,1016.91
2017-01-08T09:03:32.812Z,1016.92
2017-01-08T09:04:44.141Z,1016.94
2017-01-08T09:05:55.094Z,1016.93
2017-01-08T09:07:06.419Z,1016.95
2017-01-08T09:08:17.740Z,1016.96
2017-01-08T09:09:28.642Z,1016.97
2017-01-08T09:10:39.963Z,1016.94
2017-01-08T09:11:51.340Z,1016.98
2017-01-08T09:13:01.945Z,1016.98
2017-01-08T09:14:13.778Z,1016.98
2017-01-08T09:15:25.107Z,1017.01
2017-01-08T09:16:35.585Z,1016.99
2017-01-08T09:17:46.538Z,1017.01
2017-01-08T09:18:57.447Z,1017.03
2017-01-08T09:20:08.380Z,1017.05
2017-01-08T09:21:19.286Z,1017.04
2017-01-08T09:22:30.188Z,1017.05
2017-01-08T09:23:41.576Z,1017.02
2017-01-08T09:24:52.481Z,1016.98
2017-01-08T09:26:03.847Z,1017.02
2017-01-08T09:27:14.412Z,1017.05
2017-01-08T09:28:25.737Z,1017.07
2017-01-08T09:29:36.254Z,1017.04
2017-01-08T09:30:47.155Z,1017.08
2017-01-08T09:31:58.061Z,1017.09
2017-01-08T09:33:08.970Z,1017.1
2017-01-08T09:34:19.867Z,1017.11
2017-01-08T09:35:30.380Z,1017.14
2017-01-08T09:36:41.698Z,1017.16
2017-01-08T09:37:52.595Z,1017.15
2017-01-08T09:39:03.072Z,1017.15
2017-01-08T09:40:13.973Z,1017.15
2017-01-08T09:41:25.031Z,1017.19
2017-01-08T09:42:35.936Z,1017.18
2017-01-08T09:43:46.835Z,1017.16
2017-01-08T09:44:57.778Z,1017.2
2017-01-08T09:46:08.675Z,1017.23
2017-01-08T09:47:20.049Z,1017.26
2017-01-08T09:48:31.370Z,1017.31
2017-01-08T09:49:42.702Z,1017.29
2017-01-08T09:50:53.604Z,1017.3
2017-01-08T09:52:04.505Z,1017.34
2017-01-08T09:53:15.879Z,1017.36
2017-01-08T09:54:26.772Z,1017.38
2017-01-08T09:55:37.678Z,1017.37
2017-01-08T09:56:49.006Z,1017.38
2017-01-08T09:58:00.332Z,1017.38
2017-01-08T09:59:11.713Z,1017.38
2017-01-08T10:00:22.622Z,1017.34
2017-01-08T10:01:33.523Z,1017.38
2017-01-08T10:02:44.845Z,1017.41
2017-01-08T10:03:55.742Z,1017.42
2017-01-08T10:05:07.118Z,1017.45
2017-01-08T10:06:18.444Z,1017.51
2017-01-08T10:07:29.773Z,1017.48
2017-01-08T10:08:40.670Z,1017.49
2017-01-08T10:09:52.000Z,1017.46
2017-01-08T10:11:03.385Z,1017.51
2017-01-08T10:12:14.714Z,1017.44
2017-01-08T10:13:25.615Z,1017.48
2017-01-08T10:14:35.652Z,1017.45
2017-01-08T10:15:46.977Z,1017.47
2017-01-08T10:16:58.406Z,1017.48
2017-01-08T10:18:09.367Z,1017.47
2017-01-08T10:19:19.844Z,1017.56
2017-01-08T10:20:31.178Z,1017.6
2017-01-08T10:21:42.075Z,1017.6
2017-01-08T10:22:52.980Z,1017.65
2017-01-08T10:24:03.957Z,1017.66
2017-01-08T10:25:14.862Z,1017.63
2017-01-08T10:26:26.311Z,1017.67
2017-01-08T10:27:37.285Z,1017.69
2017-01-08T10:28:48.342Z,1017.71
2017-01-08T10:29:59.631Z,1017.74
2017-01-08T10:31:09.788Z,1017.72
2017-01-08T10:32:20.801Z,1017.74
2017-01-08T10:33:32.675Z,1017.76
2017-01-08T10:34:43.760Z,1017.69
2017-01-08T10:35:55.541Z,1017.73
2017-01-08T10:37:06.218Z,1017.78
2017-01-08T10:38:17.699Z,1017.78
2017-01-08T10:39:31.404Z,1017.85
2017-01-08T10:40:43.014Z,1017.85
2017-01-08T10:41:54.483Z,1017.84
2017-01-08T10:43:07.192Z,1017.86
2017-01-08T10:44:19.837Z,1017.9
2017-01-08T10:45:33.614Z,1017.91
2017-01-08T10:46:46.156Z,1017.98
2017-01-08T10:47:58.605Z,1017.98
2017-01-08T10:49:09.726Z,1018.02
2017-01-08T10:50:21.087Z,1017.99
2017-01-08T10:51:32.940Z,1018.04
2017-01-08T10:52:44.449Z,1018.06
2017-01-08T10:53:55.843Z,1018.07
2017-01-08T10:55:06.752Z,1018.09
2017-01-08T10:56:18.083Z,1018.07
2017-01-08T10:57:29.201Z,1018.08
2017-01-08T10:58:40.155Z,1018.14
2017-01-08T10:59:51.057Z,1018.11
2017-01-08T11:01:01.858Z,1018.12
2017-01-08T11:02:12.855Z,1018.11
2017-01-08T11:03:24.312Z,1018.12
2017-01-08T11:04:35.474Z,1018.1
2017-01-08T11:05:45.967Z,1018.09
2017-01-08T11:06:56.864Z,1018.09
2017-01-08T11:08:06.909Z,1018.13
2017-01-08T11:09:17.596Z,1018.15
2017-01-08T11:10:28.108Z,1018.09
2017-01-08T11:11:39.005Z,1018.15
2017-01-08T11:12:49.498Z,1018.15
2017-01-08T11:14:00.400Z,1018.17
2017-01-08T11:15:11.297Z,1018.15
2017-01-08T11:16:22.251Z,1018.13
2017-01-08T11:17:33.147Z,1018.15
2017-01-08T11:18:44.045Z,1018.17
2017-01-08T11:19:55.374Z,1018.15
2017-01-08T11:21:06.703Z,1018.18
2017-01-08T11:22:17.656Z,1018.14
2017-01-08T11:23:28.557Z,1018.12
2017-01-08T11:24:39.883Z,1018.08
2017-01-08T11:25:51.248Z,1018.11
2017-01-08T11:27:02.145Z,1018.11
2017-01-08T11:28:13.098Z,1018.17
2017-01-08T11:29:24.424Z,1018.13
2017-01-08T11:30:35.324Z,1018.11
2017-01-08T11:31:46.658Z,1018.08
2017-01-08T11:32:57.981Z,1018.1
2017-01-08T11:34:09.360Z,1018.11
2017-01-08T11:35:19.838Z,1018.06
2017-01-08T11:36:30.743Z,1018.11
2017-01-08T11:37:42.068Z,1018.07
2017-01-08T11:38:52.969Z,1018.12
2017-01-08T11:40:03.920Z,1018.11
2017-01-08T11:41:15.256Z,1018.1
2017-01-08T11:42:26.581Z,1018.13
2017-01-08T11:43:37.910Z,1018.11
2017-01-08T11:44:48.804Z,1018.14
2017-01-08T11:45:59.753Z,1018.1
2017-01-08T11:47:10.650Z,1018.12
2017-01-08T11:48:21.552Z,1018.07
2017-01-08T11:49:32.458Z,1018.07
2017-01-08T11:50:44.450Z,1018.07
2017-01-08T11:51:55.411Z,1018.03
2017-01-08T11:53:05.877Z,1018.07
2017-01-08T11:54:17.225Z,1018.07
2017-01-08T11:55:28.015Z,1018.07
2017-01-08T11:56:39.520Z,1018.09
2017-01-08T11:57:51.341Z,1018.07
2017-01-08T11:59:02.726Z,1018.07
2017-01-08T12:00:14.464Z,1018.05
2017-01-08T12:01:25.261Z,1018.09
2017-01-08T12:02:36.375Z,1018.1
2017-01-08T12:03:47.504Z,1018.09
2017-01-08T12:04:58.673Z,1018.11
2017-01-08T12:06:09.910Z,1018.1
2017-01-08T12:07:21.127Z,1018.08
2017-01-08T12:08:32.021Z,1018.06
2017-01-08T12:09:42.541Z,1018.05
2017-01-08T12:10:53.447Z,1018.01
2017-01-08T12:12:04.384Z,1017.99
2017-01-08T12:13:15.605Z,1018.01
2017-01-08T12:14:25.859Z,1018
2017-01-08T12:15:37.244Z,1017.97
2017-01-08T12:16:48.141Z,1017.98
2017-01-08T12:17:59.065Z,1017.97
2017-01-08T12:19:09.968Z,1018
2017-01-08T12:20:21.297Z,1018.05
2017-01-08T12:21:33.730Z,1018.02
2017-01-08T12:22:44.635Z,1017.99
2017-01-08T12:23:55.537Z,1018.02
2017-01-08T12:25:06.454Z,1018
2017-01-08T12:26:17.363Z,1017.98
2017-01-08T12:27:28.324Z,1017.95
2017-01-08T12:28:39.229Z,1017.99
2017-01-08T12:29:50.551Z,1018.03
2017-01-08T12:31:01.032Z,1017.99
2017-01-08T12:32:11.941Z,1017.99
2017-01-08T12:33:22.899Z,1017.97
2017-01-08T12:34:33.800Z,1017.98
2017-01-08T12:35:45.161Z,1017.96
2017-01-08T12:36:56.494Z,1017.96
2017-01-08T12:38:07.415Z,1017.94
2017-01-08T12:39:18.812Z,1017.94
2017-01-08T12:40:29.714Z,1017.91
2017-01-08T12:41:41.035Z,1017.89
2017-01-08T12:42:51.944Z,1017.9
2017-01-08T12:44:02.857Z,1017.88
2017-01-08T12:45:14.233Z,1017.91
2017-01-08T12:46:25.140Z,1017.91
2017-01-08T12:47:36.049Z,1017.9
2017-01-08T12:48:47.386Z,1017.93
2017-01-08T12:49:58.708Z,1017.95
2017-01-08T12:51:09.661Z,1017.94
2017-01-08T12:52:20.586Z,1017.97
2017-01-08T12:53:31.479Z,1017.97
2017-01-08T12:54:42.404Z,1018.01
2017-01-08T12:55:52.878Z,1018.01
2017-01-08T12:57:04.266Z,1017.96
2017-01-08T12:58:15.596Z,1017.98
2017-01-08T12:59:26.921Z,1018.02
2017-01-08T13:00:37.394Z,1018
2017-01-08T13:01:48.292Z,1018
2017-01-08T13:02:59.673Z,1018.02
2017-01-08T13:04:10.578Z,1018
2017-01-08T13:05:21.903Z,1017.96
2017-01-08T13:06:32.809Z,1017.97
2017-01-08T13:07:44.138Z,1017.97
2017-01-08T13:08:55.091Z,1017.98
2017-01-08T13:10:05.988Z,1018.01
2017-01-08T13:11:16.921Z,1018
2017-01-08T13:12:27.839Z,1018.03
2017-01-08T13:13:40.380Z,1017.99
2017-01-08T13:14:52.593Z,1017.98
2017-01-08T13:16:03.922Z,1017.98
2017-01-08T13:17:14.827Z,1017.99
2017-01-08T13:18:25.309Z,1017.94
2017-01-08T13:19:36.226Z,1017.98
2017-01-08T13:20:47.187Z,1017.97
2017-01-08T13:21:58.519Z,1018.03
2017-01-08T13:23:09.838Z,1018.02
2017-01-08T13:24:20.742Z,1018.04
2017-01-08T13:25:32.076Z,1018.05
2017-01-08T13:26:43.053Z,1018.03
2017-01-08T13:27:54.374Z,1018.03
2017-01-08T13:29:05.703Z,1018.03
2017-01-08T13:30:16.605Z,1018.06
2017-01-08T13:31:27.506Z,1018.05
2017-01-08T13:32:38.575Z,1018.08
2017-01-08T13:33:49.484Z,1018.1
2017-01-08T13:35:00.650Z,1018.13
2017-01-08T13:36:11.582Z,1018.17
2017-01-08T13:37:22.059Z,1018.13
2017-01-08T13:38:32.893Z,1018.14
2017-01-08T13:39:43.614Z,1018.17
2017-01-08T13:40:54.407Z,1018.18
2017-01-08T13:42:05.308Z,1018.13
2017-01-08T13:43:16.326Z,1018.17
2017-01-08T13:44:26.943Z,1018.16
2017-01-08T13:45:37.748Z,1018.18
2017-01-08T13:46:48.441Z,1018.13
2017-01-08T13:47:59.350Z,1018.19
2017-01-08T13:49:09.823Z,1018.23
2017-01-08T13:50:21.201Z,1018.23
2017-01-08T13:51:32.314Z,1018.24
2017-01-08T13:52:43.527Z,1018.28
2017-01-08T13:53:55.072Z,1018.28
2017-01-08T13:55:05.977Z,1018.32
2017-01-08T13:56:17.430Z,1018.31
2017-01-08T13:57:28.328Z,1018.3
2017-01-08T13:58:39.253Z,1018.29
2017-01-08T13:59:50.591Z,1018.26
2017-01-08T14:01:01.519Z,1018.26
2017-01-08T14:02:12.469Z,1018.26
2017-01-08T14:03:23.362Z,1018.28
2017-01-08T14:04:34.283Z,1018.3
2017-01-08T14:05:45.632Z,1018.28
2017-01-08T14:06:56.105Z,1018.28
2017-01-08T14:08:07.174Z,1018.25
2017-01-08T14:09:18.076Z,1018.29
2017-01-08T14:10:28.985Z,1018.25
2017-01-08T14:11:39.890Z,1018.32
2017-01-08T14:12:50.803Z,1018.25
2017-01-08T14:14:01.752Z,1018.3
2017-01-08T14:15:13.085Z,1018.33
2017-01-08T14:16:23.987Z,1018.37
2017-01-08T14:17:35.320Z,1018.32
2017-01-08T14:18:46.221Z,1018.28
2017-01-08T14:19:57.602Z,1018.32
2017-01-08T14:21:08.931Z,1018.32
2017-01-08T14:22:19.833Z,1018.35
2017-01-08T14:23:30.734Z,1018.36
2017-01-08T14:24:41.639Z,1018.44
2017-01-08T14:25:53.016Z,1018.41
2017-01-08T14:27:04.353Z,1018.48
2017-01-08T14:28:15.679Z,1018.46
2017-01-08T14:29:26.588Z,1018.49
2017-01-08T14:30:37.494Z,1018.47
2017-01-08T14:31:48.450Z,1018.49
2017-01-08T14:32:59.783Z,1018.48
2017-01-08T14:34:11.121Z,1018.49
2017-01-08T14:35:22.021Z,1018.52
2017-01-08T14:36:32.927Z,1018.53
2017-01-08T14:37:43.504Z,1018.55
2017-01-08T14:38:54.405Z,1018.49
2017-01-08T14:40:05.302Z,1018.52
2017-01-08T14:41:16.214Z,1018.54
2017-01-08T14:42:26.897Z,1018.5
2017-01-08T14:43:37.850Z,1018.48
2017-01-08T14:44:48.464Z,1018.51
2017-01-08T14:45:59.800Z,1018.51
2017-01-08T14:47:11.310Z,1018.51
2017-01-08T14:48:21.133Z,1018.51
2017-01-08T14:49:31.044Z,1018.54
2017-01-08T14:50:42.289Z,1018.52
2017-01-08T14:51:53.050Z,1018.51
2017-01-08T14:53:03.335Z,1018.51
2017-01-08T14:54:13.620Z,1018.53
2017-01-08T14:55:23.990Z,1018.52
2017-01-08T14:56:34.710Z,1018.49
2017-01-08T14:57:46.039Z,1018.56
2017-01-08T14:58:57.356Z,1018.57
2017-01-08T15:00:08.285Z,1018.58
2017-01-08T15:01:19.227Z,1018.55
2017-01-08T15:02:30.124Z,1018.59
2017-01-08T15:03:41.028Z,1018.61
2017-01-08T15:04:51.930Z,1018.58
2017-01-08T15:06:03.259Z,1018.63
2017-01-08T15:07:14.216Z,1018.62
2017-01-08T15:08:25.113Z,1018.63
2017-01-08T15:09:36.434Z,1018.58
2017-01-08T15:10:47.763Z,1018.62
2017-01-08T15:11:58.660Z,1018.64
2017-01-08T15:13:09.746Z,1018.64
2017-01-08T15:14:20.642Z,1018.67
2017-01-08T15:15:31.960Z,1018.68
2017-01-08T15:16:42.865Z,1018.64
2017-01-08T15:17:53.774Z,1018.66
2017-01-08T15:19:04.723Z,1018.61
2017-01-08T15:20:15.624Z,1018.7
2017-01-08T15:21:26.518Z,1018.68
2017-01-08T15:22:37.951Z,1018.7
2017-01-08T15:23:49.132Z,1018.67
2017-01-08T15:25:00.276Z,1018.67
2017-01-08T15:26:11.145Z,1018.71
2017-01-08T15:27:21.919Z,1018.74
2017-01-08T15:28:32.384Z,1018.73
2017-01-08T15:29:43.144Z,1018.76
2017-01-08T15:30:54.419Z,1018.78
2017-01-08T15:32:05.751Z,1018.79
2017-01-08T15:33:16.652Z,1018.8
2017-01-08T15:34:27.333Z,1018.82
2017-01-08T15:35:38.326Z,1018.77
2017-01-08T15:36:49.879Z,1018.81
2017-01-08T15:38:00.856Z,1018.8
2017-01-08T15:39:11.897Z,1018.82
2017-01-08T15:40:22.850Z,1018.8
2017-01-08T15:41:33.743Z,1018.84
2017-01-08T15:42:45.172Z,1018.81
2017-01-08T15:43:55.709Z,1018.82
2017-01-08T15:45:07.042Z,1018.81
2017-01-08T15:46:18.643Z,1018.8
2017-01-08T15:47:29.544Z,1018.77
2017-01-08T15:48:40.497Z,1018.78
2017-01-08T15:49:51.402Z,1018.79
2017-01-08T15:51:02.727Z,1018.78
2017-01-08T15:52:14.052Z,1018.77
2017-01-08T15:53:25.382Z,1018.81
2017-01-08T15:54:36.694Z,1018.78
2017-01-08T15:55:47.680Z,1018.77
2017-01-08T15:56:58.600Z,1018.75
2017-01-08T15:58:09.498Z,1018.68
2017-01-08T15:59:20.823Z,1018.68
2017-01-08T16:00:32.300Z,1018.71
2017-01-08T16:01:43.625Z,1018.69
2017-01-08T16:02:54.950Z,1018.64
2017-01-08T16:04:05.848Z,1018.65
2017-01-08T16:05:16.957Z,1018.6
2017-01-08T16:06:27.902Z,1018.65
2017-01-08T16:07:38.803Z,1018.68
2017-01-08T16:08:50.192Z,1018.71
2017-01-08T16:10:01.106Z,1018.71
2017-01-08T16:11:12.435Z,1018.7
2017-01-08T16:12:23.403Z,1018.7
2017-01-08T16:13:34.306Z,1018.7
2017-01-08T16:14:45.262Z,1018.67
2017-01-08T16:15:55.733Z,1018.67
2017-01-08T16:17:06.421Z,1018.73
2017-01-08T16:18:17.802Z,1018.7
2017-01-08T16:19:29.123Z,1018.75
2017-01-08T16:20:39.764Z,1018.78
2017-01-08T16:21:50.814Z,1018.77
2017-01-08T16:23:01.711Z,1018.84
2017-01-08T16:24:12.776Z,1018.78
2017-01-08T16:25:24.105Z,1018.87
2017-01-08T16:26:35.003Z,1018.84
2017-01-08T16:27:46.328Z,1018.88
2017-01-08T16:28:57.365Z,1018.91
2017-01-08T16:30:09.194Z,1018.91
2017-01-08T16:31:20.567Z,1018.9
2017-01-08T16:32:31.656Z,1018.95
2017-01-08T16:33:42.978Z,1018.94
2017-01-08T16:34:54.135Z,1018.99
2017-01-08T16:36:04.864Z,1018.97
2017-01-08T16:37:16.186Z,1018.96
2017-01-08T16:38:28.380Z,1018.97
2017-01-08T16:39:40.980Z,1018.95
2017-01-08T16:40:51.885Z,1018.99
2017-01-08T16:42:03.275Z,1018.99
2017-01-08T16:43:14.476Z,1018.97
2017-01-08T16:44:25.645Z,1019.04
2017-01-08T16:45:37.154Z,1018.99
2017-01-08T16:46:48.427Z,1018.98
2017-01-08T16:48:00.133Z,1019.04
2017-01-08T16:49:10.970Z,1019.05
2017-01-08T16:50:22.299Z,1019.06
2017-01-08T16:51:32.792Z,1019.08
2017-01-08T16:52:43.705Z,1019.1
2017-01-08T16:53:54.850Z,1019.11
2017-01-08T16:55:05.775Z,1019.17
2017-01-08T16:56:16.613Z,1019.16
2017-01-08T16:57:27.091Z,1019.16
2017-01-08T16:58:37.896Z,1019.17
2017-01-08T16:59:49.229Z,1019.15
2017-01-08T17:01:00.550Z,1019.18
2017-01-08T17:02:11.592Z,1019.16
2017-01-08T17:03:22.697Z,1019.14
2017-01-08T17:04:33.690Z,1019.14
2017-01-08T17:05:44.643Z,1019.14
2017-01-08T17:06:55.660Z,1019.14
2017-01-08T17:08:06.561Z,1019.19
2017-01-08T17:09:17.626Z,1019.15
2017-01-08T17:10:28.612Z,1019.16
2017-01-08T17:11:39.362Z,1019.16
2017-01-08T17:12:49.838Z,1019.18
2017-01-08T17:14:00.935Z,1019.15
2017-01-08T17:15:11.848Z,1019.14
2017-01-08T17:16:22.745Z,1019.17
2017-01-08T17:17:33.979Z,1019.15
2017-01-08T17:18:44.875Z,1019.15
2017-01-08T17:19:56.317Z,1019.12
2017-01-08T17:21:07.650Z,1019.16
2017-01-08T17:22:18.631Z,1019.13
2017-01-08T17:23:29.478Z,1019.13
2017-01-08T17:24:40.393Z,1019.12
2017-01-08T17:25:51.131Z,1019.1
2017-01-08T17:27:02.600Z,1019.06
2017-01-08T17:28:13.377Z,1019.1
2017-01-08T17:29:25.422Z,1019.08
2017-01-08T17:30:37.077Z,1019.08
2017-01-08T17:31:48.741Z,1019.07
2017-01-08T17:33:00.078Z,1019.06
2017-01-08T17:34:11.028Z,1019.06
2017-01-08T17:35:22.493Z,1019.04
2017-01-08T17:36:33.730Z,1019.08
2017-01-08T17:37:45.535Z,1019.03
2017-01-08T17:38:57.417Z,1019
2017-01-08T17:40:08.782Z,1018.99
2017-01-08T17:41:20.267Z,1019.01
2017-01-08T17:42:30.448Z,1018.99
2017-01-08T17:43:41.577Z,1018.98
2017-01-08T17:44:52.903Z,1018.94
2017-01-08T17:46:04.644Z,1018.94
2017-01-08T17:47:16.893Z,1018.94
2017-01-08T17:48:27.803Z,1018.91
2017-01-08T17:49:38.712Z,1018.92
2017-01-08T17:50:50.045Z,1018.88
2017-01-08T17:52:00.942Z,1018.86
2017-01-08T17:53:12.072Z,1018.94
2017-01-08T17:54:23.401Z,1018.92
2017-01-08T17:55:34.346Z,1018.97
2017-01-08T17:56:45.655Z,1018.93
2017-01-08T17:57:56.776Z,1018.95
2017-01-08T17:59:09.310Z,1018.9
2017-01-08T18:00:20.719Z,1018.86
2017-01-08T18:01:31.628Z,1018.94
2017-01-08T18:02:42.529Z,1018.92
2017-01-08T18:03:53.395Z,1018.88
2017-01-08T18:05:04.368Z,1018.88
2017-01-08T18:06:15.265Z,1018.9
2017-01-08T18:07:26.166Z,1018.88
2017-01-08T18:08:37.076Z,1018.88
2017-01-08T18:09:48.405Z,1018.87
2017-01-08T18:11:00.010Z,1018.9
2017-01-08T18:12:11.112Z,1018.94
2017-01-08T18:13:22.648Z,1018.94
2017-01-08T18:14:33.550Z,1018.94
2017-01-08T18:15:44.203Z,1018.93
2017-01-08T18:16:55.552Z,1018.87
2017-01-08T18:18:07.722Z,1018.92
2017-01-08T18:19:19.043Z,1018.9
2017-01-08T18:20:31.205Z,1018.91
2017-01-08T18:21:42.374Z,1018.89
2017-01-08T18:22:52.803Z,1018.94
2017-01-08T18:24:03.268Z,1018.95
2017-01-08T18:25:13.737Z,1018.94
2017-01-08T18:26:24.770Z,1018.93
2017-01-08T18:27:35.671Z,1018.93
2017-01-08T18:28:47.073Z,1018.92
2017-01-08T18:29:57.986Z,1018.88
2017-01-08T18:31:09.967Z,1018.9
2017-01-08T18:32:21.424Z,1018.95
2017-01-08T18:33:33.449Z,1018.93
2017-01-08T18:34:45.175Z,1018.92
2017-01-08T18:35:56.437Z,1018.91
2017-01-08T18:37:07.774Z,1018.94
2017-01-08T18:38:18.674Z,1018.95
2017-01-08T18:39:29.804Z,1018.94
2017-01-08T18:40:40.796Z,1018.93
2017-01-08T18:41:51.738Z,1019
2017-01-08T18:43:02.656Z,1019
2017-01-08T18:44:13.585Z,1019.03
2017-01-08T18:45:24.478Z,1019.04
2017-01-08T18:46:35.851Z,1019.04
2017-01-08T18:47:46.776Z,1019.01
2017-01-08T18:48:58.098Z,1018.98
2017-01-08T18:50:09.423Z,1018.95
2017-01-08T18:51:20.325Z,1018.95
2017-01-08T18:52:31.762Z,1018.95
2017-01-08T18:53:44.095Z,1018.92
2017-01-08T18:54:55.124Z,1018.95
2017-01-08T18:56:06.937Z,1018.93
2017-01-08T18:57:18.739Z,1018.91
2017-01-08T18:58:30.119Z,1018.87
2017-01-08T18:59:41.021Z,1018.84
2017-01-08T19:00:51.778Z,1018.85
2017-01-08T19:02:02.619Z,1018.85
2017-01-08T19:03:13.524Z,1018.79
2017-01-08T19:04:24.218Z,1018.81
2017-01-08T19:05:35.131Z,1018.78
2017-01-08T19:06:46.456Z,1018.8
2017-01-08T19:07:57.783Z,1018.77
2017-01-08T19:09:08.218Z,1018.77
2017-01-08T19:10:19.168Z,1018.77
2017-01-08T19:11:30.069Z,1018.75
2017-01-08T19:12:40.975Z,1018.73
2017-01-08T19:13:51.868Z,1018.78
2017-01-08T19:15:02.801Z,1018.77
2017-01-08T19:16:14.202Z,1018.81
2017-01-08T19:17:24.983Z,1018.82
2017-01-08T19:18:35.887Z,1018.85
2017-01-08T19:19:47.074Z,1018.86
2017-01-08T19:20:57.511Z,1018.88
2017-01-08T19:22:08.556Z,1018.86
2017-01-08T19:23:19.881Z,1018.85
2017-01-08T19:24:30.542Z,1018.85
2017-01-08T19:25:42.252Z,1018.86
2017-01-08T19:26:53.157Z,1018.87
2017-01-08T19:28:04.553Z,1018.86
2017-01-08T19:29:15.875Z,1018.89
2017-01-08T19:30:26.773Z,1018.87
2017-01-08T19:31:37.682Z,1018.91
2017-01-08T19:32:49.511Z,1018.87
2017-01-08T19:34:00.756Z,1018.86
2017-01-08T19:35:11.961Z,1018.85
2017-01-08T19:36:23.299Z,1018.88
2017-01-08T19:37:34.620Z,1018.9
2017-01-08T19:38:45.121Z,1018.87
2017-01-08T19:39:56.074Z,1018.87
2017-01-08T19:41:06.972Z,1018.87
2017-01-08T19:42:18.004Z,1018.85
2017-01-08T19:43:29.558Z,1018.87
2017-01-08T19:44:40.654Z,1018.85
2017-01-08T19:45:51.760Z,1018.84
2017-01-08T19:47:02.921Z,1018.81
2017-01-08T19:48:13.903Z,1018.78
2017-01-08T19:49:24.248Z,1018.81
2017-01-08T19:50:35.597Z,1018.83
2017-01-08T19:51:47.078Z,1018.84
2017-01-08T19:52:58.596Z,1018.89
2017-01-08T19:54:09.964Z,1018.87
2017-01-08T19:55:22.462Z,1018.86
2017-01-08T19:56:34.107Z,1018.85
2017-01-08T19:57:44.393Z,1018.87
2017-01-08T19:58:55.293Z,1018.9
2017-01-08T20:00:06.631Z,1018.88
2017-01-08T20:01:17.128Z,1018.88
2017-01-08T20:02:27.797Z,1018.88
2017-01-08T20:03:38.534Z,1018.85
2017-01-08T20:04:49.443Z,1018.9
2017-01-08T20:06:00.017Z,1018.9
2017-01-08T20:07:11.346Z,1018.87
2017-01-08T20:08:21.823Z,1018.85
2017-01-08T20:09:32.796Z,1018.84
2017-01-08T20:10:44.185Z,1018.81
2017-01-08T20:11:55.506Z,1018.82
2017-01-08T20:13:06.412Z,1018.82
2017-01-08T20:14:17.737Z,1018.8
2017-01-08T20:15:29.018Z,1018.88
2017-01-08T20:16:40.343Z,1018.85
2017-01-08T20:17:50.812Z,1018.85
2017-01-08T20:19:02.190Z,1018.83
2017-01-08T20:20:13.363Z,1018.85
2017-01-08T20:21:24.848Z,1018.87
2017-01-08T20:22:35.333Z,1018.87
2017-01-08T20:23:46.619Z,1018.93
2017-01-08T20:24:57.516Z,1018.93
2017-01-08T20:26:08.369Z,1018.92
2017-01-08T20:27:19.330Z,1018.88
2017-01-08T20:28:29.799Z,1018.91
2017-01-08T20:29:40.700Z,1018.9
2017-01-08T20:30:51.625Z,1018.88
2017-01-08T20:32:02.959Z,1018.84
2017-01-08T20:33:14.280Z,1018.88
2017-01-08T20:34:24.525Z,1018.85
2017-01-08T20:35:35.642Z,1018.82
2017-01-08T20:36:46.459Z,1018.9
2017-01-08T20:37:58.493Z,1018.91
2017-01-08T20:39:08.826Z,1018.85
2017-01-08T20:40:20.183Z,1018.86
2017-01-08T20:41:30.632Z,1018.81
2017-01-08T20:42:41.821Z,1018.87
2017-01-08T20:43:53.135Z,1018.86
2017-01-08T20:45:04.115Z,1018.88
2017-01-08T20:46:15.009Z,1018.88
2017-01-08T20:47:25.910Z,1018.87
2017-01-08T20:48:37.235Z,1018.92
2017-01-08T20:49:48.132Z,1018.9
2017-01-08T20:50:59.077Z,1018.92
2017-01-08T20:52:10.394Z,1018.9
2017-01-08T20:53:21.288Z,1018.85
2017-01-08T20:54:32.817Z,1018.82
2017-01-08T20:55:44.142Z,1018.82
2017-01-08T20:56:55.191Z,1018.82
2017-01-08T20:58:06.088Z,1018.86
2017-01-08T20:59:17.414Z,1018.82
2017-01-08T21:00:27.882Z,1018.83
2017-01-08T21:01:39.216Z,1018.92
2017-01-08T21:02:50.164Z,1018.89
2017-01-08T21:04:00.642Z,1018.94
2017-01-08T21:05:11.535Z,1018.88
2017-01-08T21:06:22.859Z,1018.87
2017-01-08T21:07:33.749Z,1018.89
2017-01-08T21:08:45.222Z,1018.84
2017-01-08T21:09:55.439Z,1018.81
2017-01-08T21:11:06.332Z,1018.85
2017-01-08T21:12:17.657Z,1018.88
2017-01-08T21:13:28.978Z,1018.87
2017-01-08T21:14:40.368Z,1018.86
2017-01-08T21:15:51.685Z,1018.83
2017-01-08T21:17:03.037Z,1018.8
2017-01-08T21:18:14.363Z,1018.78
2017-01-08T21:19:25.704Z,1018.84
2017-01-08T21:20:37.129Z,1018.85
2017-01-08T21:21:48.447Z,1018.83
2017-01-08T21:22:59.364Z,1018.86
2017-01-08T21:24:09.829Z,1018.91
2017-01-08T21:25:21.146Z,1018.91
2017-01-08T21:26:32.087Z,1018.94
2017-01-08T21:27:43.404Z,1018.89
2017-01-08T21:28:54.298Z,1018.93
2017-01-08T21:30:05.195Z,1018.92
2017-01-08T21:31:16.520Z,1018.91
2017-01-08T21:32:27.457Z,1018.93
2017-01-08T21:33:38.779Z,1018.94
2017-01-08T21:34:49.672Z,1018.93
2017-01-08T21:36:00.997Z,1018.91
2017-01-08T21:37:12.322Z,1018.88
2017-01-08T21:38:23.287Z,1018.9
2017-01-08T21:39:34.184Z,1018.89
2017-01-08T21:40:45.507Z,1018.9
2017-01-08T21:41:56.827Z,1018.89
2017-01-08T21:43:07.732Z,1018.96
2017-01-08T21:44:19.109Z,1018.91
2017-01-08T21:45:30.007Z,1018.95
2017-01-08T21:46:40.923Z,1018.93
2017-01-08T21:47:51.393Z,1018.93
2017-01-08T21:49:02.710Z,1018.92
2017-01-08T21:50:14.079Z,1018.9
2017-01-08T21:51:24.972Z,1018.91
2017-01-08T21:52:36.294Z,1018.88
2017-01-08T21:53:47.611Z,1018.93
2017-01-08T21:54:58.936Z,1018.96
2017-01-08T21:56:09.877Z,1018.95
2017-01-08T21:57:20.770Z,1018.95
2017-01-08T21:58:32.095Z,1018.93
2017-01-08T21:59:43.418Z,1018.91
2017-01-08T22:00:53.882Z,1018.89
2017-01-08T22:02:04.411Z,1018.85
2017-01-08T22:03:15.888Z,1018.82
2017-01-08T22:04:27.194Z,1018.83
2017-01-08T22:05:38.519Z,1018.79
2017-01-08T22:06:49.420Z,1018.75
2017-01-08T22:08:00.789Z,1018.76
2017-01-08T22:09:11.690Z,1018.78
2017-01-08T22:10:22.583Z,1018.77
2017-01-08T22:11:33.577Z,1018.75
2017-01-08T22:12:43.242Z,1018.77
2017-01-08T22:13:54.187Z,1018.8
2017-01-08T22:15:05.080Z,1018.8
2017-01-08T22:16:15.973Z,1018.77
2017-01-08T22:17:26.874Z,1018.78
2017-01-08T22:18:37.776Z,1018.76
2017-01-08T22:19:49.149Z,1018.8
2017-01-08T22:21:00.466Z,1018.78
2017-01-08T22:22:11.359Z,1018.78
2017-01-08T22:23:22.248Z,1018.79
2017-01-08T22:24:33.142Z,1018.77
2017-01-08T22:25:44.519Z,1018.81
2017-01-08T22:26:55.412Z,1018.78
2017-01-08T22:28:06.309Z,1018.75
2017-01-08T22:29:17.634Z,1018.78
2017-01-08T22:30:28.528Z,1018.76
2017-01-08T22:31:39.913Z,1018.79
2017-01-08T22:32:52.298Z,1018.8
2017-01-08T22:34:04.427Z,1018.79
2017-01-08T22:35:16.141Z,1018.73
2017-01-08T22:36:28.477Z,1018.73
2017-01-08T22:37:41.039Z,1018.76
2017-01-08T22:38:52.724Z,1018.75
2017-01-08T22:40:03.717Z,1018.74
2017-01-08T22:41:15.042Z,1018.74
2017-01-08T22:42:25.968Z,1018.75
2017-01-08T22:43:37.345Z,1018.75
2017-01-08T22:44:48.270Z,1018.75
2017-01-08T22:45:59.163Z,1018.74
2017-01-08T22:47:10.493Z,1018.73
2017-01-08T22:48:21.818Z,1018.69
2017-01-08T22:49:33.195Z,1018.65
2017-01-08T22:50:43.664Z,1018.7
2017-01-08T22:51:54.985Z,1018.69
2017-01-08T22:53:05.886Z,1018.73
2017-01-08T22:54:16.820Z,1018.71
2017-01-08T22:55:28.201Z,1018.72
2017-01-08T22:56:39.098Z,1018.78
2017-01-08T22:57:50.431Z,1018.79
2017-01-08T22:59:01.748Z,1018.79
2017-01-08T23:00:12.650Z,1018.77
2017-01-08T23:01:24.127Z,1018.76
2017-01-08T23:02:35.060Z,1018.78
2017-01-08T23:03:45.953Z,1018.8
2017-01-08T23:04:57.287Z,1018.79
2017-01-08T23:06:08.607Z,1018.8
2017-01-08T23:07:19.581Z,1018.81
2017-01-08T23:08:30.471Z,1018.77
2017-01-08T23:09:41.795Z,1018.8
2017-01-08T23:10:52.696Z,1018.79
2017-01-08T23:12:04.021Z,1018.77
2017-01-08T23:13:15.395Z,1018.76
2017-01-08T23:14:26.720Z,1018.76
2017-01-08T23:15:38.045Z,1018.75
2017-01-08T23:16:49.366Z,1018.71
2017-01-08T23:18:00.691Z,1018.68
2017-01-08T23:19:11.640Z,1018.67
2017-01-08T23:20:22.534Z,1018.65
2017-01-08T23:21:33.851Z,1018.63
2017-01-08T23:22:44.746Z,1018.64
2017-01-08T23:23:55.645Z,1018.65